sensor_id;sensor_type;location;lat;lon;timestamp;pressure;altitude;pressure_sealevel;temperature;humidity
61740;BME280;47645;45.288;12.038;2022-11-20T00:02:37;1007.6347519208366;;;9.4994140625;85.72112526468449
61740;BME280;47645;45.288;12.038;2022-11-20T00:12:38;1007.6138013951931;;;9.453515625;84.80498989273916
61740;BME280;47645;45.288;12.038;2022-11-20T00:22:39;1007.7547339128535;;;9.5095703125;84.27436501518717
61740;BME280;47645;45.288;12.038;2022-11-20T00:32:40;1007.9832148063681;;;9.8205078125;87.87329862020047
61740;BME280;47645;45.288;12.038;2022-11-20T00:42:40;1008.025141197169;;;9.67265625;84.7899006551021
61740;BME280;47645;45.288;12.038;2022-11-20T00:52:41;1007.9542909833444;;;9.560546875;85.04811175962841
61740;BME280;47645;45.288;12.038;2022-11-20T01:02:41;1008.0811294238664;;;9.41796875;86.01043129194059
61740;BME280;47645;45.288;12.038;2022-11-20T01:12:42;1008.2162158647062;;;9.2701171875;85.11053902370611
61740;BME280;47645;45.288;12.038;2022-11-20T01:22:43;1008.24472453647;;;9.433203125;84.78622328988004
61740;BME280;47645;45.288;12.038;2022-11-20T01:32:44;1008.3169102095235;;;9.443359375;84.58176671211139
61740;BME280;47645;45.288;12.038;2022-11-20T01:43:34;1008.3758473806997;;;9.2548828125;84.77638336041184
61740;BME280;47645;45.288;12.038;2022-11-20T01:52:48;1008.4446471874569;;;9.4638671875;85.66195336022706
61740;BME280;47645;45.288;12.038;2022-11-20T02:02:50;1008.5047846195143;;;9.5708984375;84.60315380527494
61740;BME280;47645;45.288;12.038;2022-11-20T02:22:53;1008.4013043517874;;;9.4076171875;83.25311844760888
61740;BME280;47645;45.288;12.038;2022-11-20T02:32:47;1008.4045356014741;;;9.4740234375;86.4480683406768
61740;BME280;47645;45.288;12.038;2022-11-20T02:42:48;1008.4831149391694;;;9.560546875;86.01956651527546
61740;BME280;47645;45.288;12.038;2022-11-20T02:52:48;1008.5150917686659;;;9.4638671875;83.88863532668562
61740;BME280;47645;45.288;12.038;2022-11-20T03:02:48;1008.4277716819055;;;9.3974609375;82.66000545477179
61740;BME280;47645;45.288;12.038;2022-11-20T03:12:53;1008.4534025965827;;;9.305859375;81.71073181020304
61740;BME280;47645;45.288;12.038;2022-11-20T03:22:50;1008.5366189778688;;;9.234375;81.87092960807394
61740;BME280;47645;45.288;12.038;2022-11-20T03:32:53;1008.5283743669484;;;9.3109375;87.83752889692686
61740;BME280;47645;45.288;12.038;2022-11-20T03:42:51;1008.6309430031054;;;9.4994140625;86.71546080586484
61740;BME280;47645;45.288;12.038;2022-11-20T03:52:52;1008.6973766795065;;;9.3923828125;87.25180904874144
61740;BME280;47645;45.288;12.038;2022-11-20T04:02:52;1008.7928695255318;;;9.0509765625;86.98019952497793
61740;BME280;47645;45.288;12.038;2022-11-20T04:12:52;1008.813471974644;;;9.1529296875;86.17926222548583
61740;BME280;47645;45.288;12.038;2022-11-20T04:22:53;1008.7961417950995;;;8.765625;87.47658558736028
61740;BME280;47645;45.288;12.038;2022-11-20T04:32:53;1008.8207228269889;;;8.80625;88.67738365064396
61740;BME280;47645;45.288;12.038;2022-11-20T04:42:54;1008.9107537578544;;;8.704296875;87.41389499669694
61740;BME280;47645;45.288;12.038;2022-11-20T04:52:55;1008.9263844140105;;;8.7552734375;87.82269171354254
61740;BME280;47645;45.288;12.038;2022-11-20T05:02:55;1008.9481386006166;;;8.3271484375;89.26528001663704
61740;BME280;47645;45.288;12.038;2022-11-20T05:12:57;1008.99839291404;;;7.9296875;89.4325076358575
61740;BME280;47645;45.288;12.038;2022-11-20T05:22:56;1009.0678316301259;;;7.8837890625;90.98811536567976
61740;BME280;47645;45.288;12.038;2022-11-20T05:32:57;1009.13492787846;;;7.573046875;92.27306176811439
61740;BME280;47645;45.288;12.038;2022-11-20T05:42:57;1009.1391073263268;;;7.29765625;91.15805639679142
61740;BME280;47645;45.288;12.038;2022-11-20T05:52:58;1009.1986215444263;;;7.6646484375;90.40695982760839
61740;BME280;47645;45.288;12.038;2022-11-20T06:02:58;1009.2724170160634;;;7.4201171875;92.01230863540218
61740;BME280;47645;45.288;12.038;2022-11-20T06:12:59;1009.4622143797402;;;7.35390625;91.27476191348447
61740;BME280;47645;45.288;12.038;2022-11-20T06:22:59;1009.5059040456447;;;7.5525390625;90.36645886561143
61740;BME280;47645;45.288;12.038;2022-11-20T06:33:00;1009.6971565083517;;;7.7361328125;90.9602133105987
61740;BME280;47645;45.288;12.038;2022-11-20T06:43:00;1009.8684552619593;;;7.91953125;88.30390407062598
61740;BME280;47645;45.288;12.038;2022-11-20T06:53:02;1009.9656325037078;;;7.7361328125;91.11403566817668
61740;BME280;47645;45.288;12.038;2022-11-20T07:03:02;1010.1265754481333;;;7.924609375;91.13602852696832
61740;BME280;47645;45.288;12.038;2022-11-20T07:13:02;1010.3658823678765;;;7.904296875;89.33048112487045
61740;BME280;47645;45.288;12.038;2022-11-20T07:23:02;1010.441041297624;;;7.4099609375;90.32099577606601
61740;BME280;47645;45.288;12.038;2022-11-20T07:33:03;1010.5120521049213;;;7.6953125;89.93755471427174
61740;BME280;47645;45.288;12.038;2022-11-20T07:43:03;1010.6824946260863;;;7.715625;91.08278664325697
61740;BME280;47645;45.288;12.038;2022-11-20T07:53:05;1010.8139117375035;;;7.9908203125;89.81924479741481
61740;BME280;47645;45.288;12.038;2022-11-20T08:03:05;1010.8311405712743;;;7.7513671875;87.92075839503262
61740;BME280;47645;45.288;12.038;2022-11-20T08:23:07;1011.0967195972859;;;7.8888671875;87.52708832080933
61740;BME280;47645;45.288;12.038;2022-11-20T08:33:08;1011.2193244042342;;;7.9958984375;86.34332080627907
61740;BME280;47645;45.288;12.038;2022-11-20T08:43:07;1011.2939635821784;;;8.1794921875;86.60565275090205
61740;BME280;47645;45.288;12.038;2022-11-20T08:53:08;1011.4719847632524;;;8.683984375;85.94134002322528
61740;BME280;47645;45.288;12.038;2022-11-20T09:03:08;1011.5842638071185;;;9.2802734375;83.45822229981694
61740;BME280;47645;45.288;12.038;2022-11-20T09:13:08;1011.68269740361;;;9.8357421875;81.6141312086821
61740;BME280;47645;45.288;12.038;2022-11-20T09:23:09;1011.6706418954544;;;10.8654296875;78.96365162599002
61740;BME280;47645;45.288;12.038;2022-11-20T09:33:10;1011.6731858504877;;;11.563671875;73.21615970142476
61740;BME280;47645;45.288;12.038;2022-11-20T09:43:15;1011.7156790835313;;;12.0375;73.26520280021661
61740;BME280;47645;45.288;12.038;2022-11-20T09:53:23;1011.6673644745542;;;12.64921875;68.61362408534104
61740;BME280;47645;45.288;12.038;2022-11-20T10:03:16;1011.7150425057387;;;13.179296875;67.88865110469604
61740;BME280;47645;45.288;12.038;2022-11-20T10:13:21;1011.6866910011705;;;13.80625;65.45499496717834
61740;BME280;47645;45.288;12.038;2022-11-20T10:23:26;1011.6583561290391;;;14.784765625;62.49150510691025
61740;BME280;47645;45.288;12.038;2022-11-20T10:33:17;1011.6719520290181;;;15.2486328125;62.61252399090194
61740;BME280;47645;45.288;12.038;2022-11-20T10:43:18;1011.5926620321559;;;15.5951171875;60.70701007603846
61740;BME280;47645;45.288;12.038;2022-11-20T10:53:19;1011.4801758117163;;;16.04375;58.705501224826676
61740;BME280;47645;45.288;12.038;2022-11-20T11:03:24;1011.4186419839629;;;16.3291015625;59.667632916105205
61740;BME280;47645;45.288;12.038;2022-11-20T11:13:21;1011.4645782680415;;;16.4259765625;62.77681139529131
61740;BME280;47645;45.288;12.038;2022-11-20T11:23:31;1011.3489978327357;;;16.563671875;60.935357366419424
61740;BME280;47645;45.288;12.038;2022-11-20T11:33:20;1011.2096458640336;;;16.583984375;60.081028459103784
61740;BME280;47645;45.288;12.038;2022-11-20T11:45:06;1011.2025942165701;;;16.8591796875;60.92137403102183
61740;BME280;47645;45.288;12.038;2022-11-20T11:53:21;1011.0958393356298;;;16.8236328125;58.18475133297045
61740;BME280;47645;45.288;12.038;2022-11-20T12:03:27;1011.0172208802136;;;16.9611328125;61.31138889886002
61740;BME280;47645;45.288;12.038;2022-11-20T12:13:34;1010.980088898366;;;16.79296875;58.251417242027934
61740;BME280;47645;45.288;12.038;2022-11-20T12:23:28;1010.8754498160384;;;16.787890625;61.387867200782885
61740;BME280;47645;45.288;12.038;2022-11-20T12:33:35;1010.8687645453922;;;16.3392578125;64.76815398709805
61740;BME280;47645;45.288;12.038;2022-11-20T12:53:31;1010.8067808113707;;;15.7021484375;68.53973089400517
61740;BME280;47645;45.288;12.038;2022-11-20T13:03:39;1010.6717390995188;;;15.41171875;67.08408986353335
61740;BME280;47645;45.288;12.038;2022-11-20T13:13:33;1010.6205426362508;;;14.9734375;72.43640579637898
61740;BME280;47645;45.288;12.038;2022-11-20T13:23:28;1010.6459596561483;;;14.8255859375;69.73429289862551
61740;BME280;47645;45.288;12.038;2022-11-20T13:33:30;1010.5471060455751;;;14.69296875;66.38048335122092
61740;BME280;47645;45.288;12.038;2022-11-20T13:43:34;1010.4479285143103;;;14.7287109375;67.6264511149143
61740;BME280;47645;45.288;12.038;2022-11-20T13:53:47;1010.4231059949908;;;14.55546875;70.53069491167729
61740;BME280;47645;45.288;12.038;2022-11-20T14:03:33;1010.323222561865;;;14.4228515625;69.17358834782763
61740;BME280;47645;45.288;12.038;2022-11-20T14:13:30;1010.3404938250877;;;14.3107421875;70.53510101317451
61740;BME280;47645;45.288;12.038;2022-11-20T14:23:31;1010.2915359125619;;;14.055859375;71.75482426451131
61740;BME280;47645;45.288;12.038;2022-11-20T14:33:33;1010.4433141688058;;;13.9794921875;72.40564347055916
61740;BME280;47645;45.288;12.038;2022-11-20T14:43:33;1010.5455430998086;;;13.8876953125;74.45525096037623
61740;BME280;47645;45.288;12.038;2022-11-20T14:53:33;1010.6004768689994;;;13.6685546875;75.02421512346417
61740;BME280;47645;45.288;12.038;2022-11-20T15:03:35;1010.6338185502252;;;13.4544921875;77.03203100990466
61740;BME280;47645;45.288;12.038;2022-11-20T15:13:37;1010.609982011571;;;13.199609375;77.42780136745513
61740;BME280;47645;45.288;12.038;2022-11-20T15:23:35;1010.6528941815163;;;12.8990234375;78.85130604239879
61740;BME280;47645;45.288;12.038;2022-11-20T15:33:36;1010.8387983016505;;;12.62890625;80.22024743585257
61740;BME280;47645;45.288;12.038;2022-11-20T15:43:36;1010.8455395044714;;;12.3638671875;81.14893722673358
61740;BME280;47645;45.288;12.038;2022-11-20T15:53:38;1010.8951634968403;;;11.925390625;81.29020333886304
61740;BME280;47645;45.288;12.038;2022-11-20T16:03:38;1010.8088967077184;;;11.7828125;81.1412028369931
61740;BME280;47645;45.288;12.038;2022-11-20T16:23:39;1010.7311534979884;;;11.242578125;83.74351897152944
61740;BME280;47645;45.288;12.038;2022-11-20T16:33:40;1010.7803988710052;;;11.048828125;84.83723993210434
61740;BME280;47645;45.288;12.038;2022-11-20T16:43:44;1010.8522363515906;;;10.809375;85.66018033465912
61740;BME280;47645;45.288;12.038;2022-11-20T16:53:43;1010.9059093140239;;;10.5646484375;86.8119621419456
61740;BME280;47645;45.288;12.038;2022-11-20T17:03:43;1010.9376454670814;;;10.493359375;86.72094223449366
61740;BME280;47645;45.288;12.038;2022-11-20T17:13:42;1011.0724160606156;;;10.284375;87.44018160770125
61740;BME280;47645;45.288;12.038;2022-11-20T17:23:44;1011.1192595670989;;;10.1671875;87.43183914807659
61740;BME280;47645;45.288;12.038;2022-11-20T17:33:45;1011.0457732449622;;;10.0244140625;87.89228420490589
61740;BME280;47645;45.288;12.038;2022-11-20T17:43:44;1011.1550033660305;;;9.8306640625;88.461886495075
61740;BME280;47645;45.288;12.038;2022-11-20T17:53:47;1011.2090016020592;;;9.7390625;88.38813439157549
61740;BME280;47645;45.288;12.038;2022-11-20T18:03:45;1011.2566332682394;;;9.6421875;87.88047969926903
61740;BME280;47645;45.288;12.038;2022-11-20T18:14:50;1011.2780429714757;;;9.530078125;88.5417927072705
61740;BME280;47645;45.288;12.038;2022-11-20T18:23:46;1011.249731623797;;;9.4689453125;88.54511003937982
61740;BME280;47645;45.288;12.038;2022-11-20T18:33:47;1011.2104442944252;;;9.208984375;89.61981733169576
61740;BME280;47645;45.288;12.038;2022-11-20T18:44:51;1011.2036660624783;;;9.239453125;89.1528126734759
61740;BME280;47645;45.288;12.038;2022-11-20T18:53:47;1011.1053361710441;;;9.1833984375;89.2742517493573
61740;BME280;47645;45.288;12.038;2022-11-20T19:03:48;1011.1729803049798;;;9.096875;89.39513166008003
61740;BME280;47645;45.288;12.038;2022-11-20T19:23:50;1011.1931831954786;;;8.918359375;89.81057783473466
61740;BME280;47645;45.288;12.038;2022-11-20T19:33:53;1011.3379358886503;;;8.98984375;89.28935772880592
61740;BME280;47645;45.288;12.038;2022-11-20T19:43:52;1011.3218119066686;;;8.9541015625;89.11916201881716
61740;BME280;47645;45.288;12.038;2022-11-20T19:53:51;1011.3145122530437;;;8.9287109375;88.9734265166543
61740;BME280;47645;45.288;12.038;2022-11-20T20:03:51;1011.2660456033103;;;8.9642578125;88.65847267737442
61740;BME280;47645;45.288;12.038;2022-11-20T20:13:52;1011.1931831954786;;;8.9287109375;88.23962516178443
61740;BME280;47645;45.288;12.038;2022-11-20T20:23:53;1011.077058291027;;;8.780859375;88.5592751577576
61740;BME280;47645;45.288;12.038;2022-11-20T20:33:53;1010.9603033865628;;;8.704296875;88.52159336148657
61740;BME280;47645;45.288;12.038;2022-11-20T20:53:53;1010.9470585066821;;;8.439453125;88.93172899553763
61740;BME280;47645;45.288;12.038;2022-11-20T21:03:54;1010.8201876815516;;;8.3119140625;89.18822279862624
61740;BME280;47645;45.288;12.038;2022-11-20T21:13:54;1010.7723169712506;;;7.9705078125;91.07573041784546
61740;BME280;47645;45.288;12.038;2022-11-20T21:23:55;1010.7855187365275;;;8.1029296875;89.79422030379058
61740;BME280;47645;45.288;12.038;2022-11-20T21:33:56;1010.7724044193826;;;8.0775390625;89.47155150135342
61740;BME280;47645;45.288;12.038;2022-11-20T21:43:57;1010.7816081220791;;;7.68515625;91.35912605739203
61740;BME280;47645;45.288;12.038;2022-11-20T21:53:57;1010.7541584857562;;;7.8583984375;90.32673968498675
61740;BME280;47645;45.288;12.038;2022-11-20T22:03:58;1010.5964968759773;;;7.7513671875;90.27341925085871
61740;BME280;47645;45.288;12.038;2022-11-20T22:14:29;1010.6486894484353;;;7.5373046875;91.6153289229263
61740;BME280;47645;45.288;12.038;2022-11-20T22:23:58;1010.7940113792515;;;7.58828125;91.4356260526565
61740;BME280;47645;45.288;12.038;2022-11-20T22:34:00;1011.1083869992419;;;7.292578125;93.3785547537111
61740;BME280;47645;45.288;12.038;2022-11-20T22:44:00;1011.339942436737;;;7.3181640625;94.08442992316996
61740;BME280;47645;45.288;12.038;2022-11-20T22:53:59;1011.2954575776589;;;7.358984375;93.64420510511964
61740;BME280;47645;45.288;12.038;2022-11-20T23:04:00;1011.2829188828771;;;7.2263671875;94.60416739758482
61740;BME280;47645;45.288;12.038;2022-11-20T23:14:01;1011.4408296340325;;;7.389453125;92.67304483071251
61740;BME280;47645;45.288;12.038;2022-11-20T23:24:00;1011.3483278580413;;;7.3283203125;92.2922218076303
61740;BME280;47645;45.288;12.038;2022-11-20T23:34:00;1011.2981992526937;;;7.623828125;90.22496702045673
61740;BME280;47645;45.288;12.038;2022-11-20T23:44:00;1011.2506706229593;;;7.680078125;89.3532099677228
61740;BME280;47645;45.288;12.038;2022-11-20T23:54:01;1011.1704781385993;;;7.5525390625;89.6737313417114
